Marcel — ONDP — position and weather

sailwx.info

Track history (hours):
 
Tides and Currents Weather Stations Pressure Air Temp Water Temp Dewpoint Dewpoint Depression Visibility Wind Speed Wind Dir Waves Ship Positions

Marcel

Last reported at 2017-Oct-18 14:00 UTC. Time now 2017-Oct-18 15:01 UTC.
Position N 43°22' W 003°04'.

Length 88 m; draft 4.9 m.

Type: Cargo ship. MMSI: 205439000.

Date/timePositionNaut miles runAvg speedWind from/ knotsBaromVisibWave heightAir tempDewpointWater temp
2017-Oct-18 14:00N 43°22' W 003°04'0 0.0
2017-Oct-18 13:30N 43°22' W 003°04'0 0.0
2017-Oct-18 13:00N 43°22' W 003°04'0 0.0
2017-Oct-18 12:30N 43°22' W 003°04'0 0.0
2017-Oct-18 12:00N 43°22' W 003°04'0 0.0
2017-Oct-18 11:30N 43°22' W 003°04'0 0.0
2017-Oct-18 11:00N 43°22' W 003°04'0 0.0
2017-Oct-18 10:30N 43°22' W 003°04'0 0.0
2017-Oct-18 10:00N 43°22' W 003°04'0 0.0
2017-Oct-18 09:30N 43°22' W 003°04'0 0.0
2017-Oct-18 09:00N 43°22' W 003°04'0 0.0
2017-Oct-18 08:28N 43°22' W 003°04'0 0.0
2017-Oct-18 07:58N 43°22' W 003°04'0 0.0
2017-Oct-18 07:28N 43°22' W 003°04'0 0.0
2017-Oct-18 06:58N 43°22' W 003°04'0 0.0
2017-Oct-18 06:30N 43°22' W 003°04'0 0.0
2017-Oct-18 06:00N 43°22' W 003°04'0 0.0
2017-Oct-18 05:30N 43°22' W 003°04'0 0.0
2017-Oct-18 05:00N 43°22' W 003°04'0 0.0
2017-Oct-18 04:30N 43°22' W 003°04'0 0.0
2017-Oct-18 03:58N 43°22' W 003°04'0 0.0
2017-Oct-18 03:28N 43°22' W 003°04'0 0.0
2017-Oct-18 03:00N 43°22' W 003°04'0 0.0
2017-Oct-18 02:27N 43°22' W 003°04'0 0.0
2017-Oct-18 01:58N 43°22' W 003°04'0 0.0
2017-Oct-18 01:28N 43°22' W 003°04'0 0.0
2017-Oct-18 01:00N 43°22' W 003°04'0 0.0
2017-Oct-18 00:30N 43°22' W 003°04'0 0.0
2017-Oct-17 23:58N 43°22' W 003°04'0 0.0
2017-Oct-17 23:28N 43°22' W 003°04'0 0.0
2017-Oct-17 22:53N 43°22' W 003°04'0 0.0
2017-Oct-17 22:29N 43°22' W 003°04'0 0.0
2017-Oct-17 21:58N 43°22' W 003°04'0 0.0
2017-Oct-17 21:28N 43°22' W 003°04'0 0.0
2017-Oct-17 20:58N 43°22' W 003°04'0 0.0
2017-Oct-17 20:28N 43°22' W 003°04'0 0.0
2017-Oct-17 19:56N 43°22' W 003°04'0 0.0
2017-Oct-17 19:29N 43°22' W 003°04'0 0.0
2017-Oct-17 19:01N 43°22' W 003°04'1 1.3
2017-Oct-17 18:31N 43°22' W 003°04'3 5.8
2017-Oct-17 18:01N 43°25' W 003°06'1 2.4
2017-Oct-17 17:31N 43°25' W 003°07'611.0
2017-Oct-17 17:01N 43°28' W 003°13'611.1
2017-Oct-17 16:30N 43°32' W 003°19'510.5
2017-Oct-17 16:00N 43°33' W 003°26'510.6
2017-Oct-17 15:31N 43°34' W 003°33'  
2017-Oct-13 11:59N 43°27' W 003°49'5 5.8
2017-Oct-13 11:10N 43°31' W 003°46'1 8.8
2017-Oct-13 11:00N 43°32' W 003°46'5 9.0
2017-Oct-13 10:30N 43°36' W 003°48'8 9.0
2017-Oct-13 09:35N 43°44' W 003°52'14 9.1
2017-Oct-13 08:04N 43°58' W 003°57'1 9.2
2017-Oct-13 07:59N 43°58' W 003°58'8 9.2
2017-Oct-13 07:09N 44°05' W 004°01'4 9.1
2017-Oct-13 06:43N 44°09' W 004°03'2 9.1
2017-Oct-13 06:31N 44°11' W 004°04'5 9.0
2017-Oct-13 06:00N 44°15' W 004°06'5 9.3
2017-Oct-13 05:30N 44°20' W 004°08'5 9.3
2017-Oct-13 05:00N 44°24' W 004°10'5 9.4
2017-Oct-13 04:28N 44°29' W 004°12'4 9.3
2017-Oct-13 03:59N 44°33' W 004°14'5 9.5
2017-Oct-13 03:28N 44°38' W 004°16'8 9.4
2017-Oct-13 02:37N 44°45' W 004°19'1 9.2
2017-Oct-13 02:30N 44°46' W 004°20'  
Track history (hours):
 
Tides and Currents Weather Stations Pressure Air Temp Water Temp Dewpoint Dewpoint Depression Visibility Wind Speed Wind Dir Waves Ship Positions

Marcel

Last reported at 2017-Oct-18 14:00 UTC. Time now 2017-Oct-18 15:01 UTC.
Position N 43°22' W 003°04'.

Length 88 m; draft 4.9 m.

Type: Cargo ship. MMSI: 205439000.

Date/timePositionNaut miles runAvg speedWind from/ knotsBaromVisibWave heightAir tempDewpointWater temp
2017-Oct-18 14:00N 43°22' W 003°04'0 0.0
2017-Oct-18 13:30N 43°22' W 003°04'0 0.0
2017-Oct-18 13:00N 43°22' W 003°04'0 0.0
2017-Oct-18 12:30N 43°22' W 003°04'0 0.0
2017-Oct-18 12:00N 43°22' W 003°04'0 0.0
2017-Oct-18 11:30N 43°22' W 003°04'0 0.0
2017-Oct-18 11:00N 43°22' W 003°04'0 0.0
2017-Oct-18 10:30N 43°22' W 003°04'0 0.0
2017-Oct-18 10:00N 43°22' W 003°04'0 0.0
2017-Oct-18 09:30N 43°22' W 003°04'0 0.0
2017-Oct-18 09:00N 43°22' W 003°04'0 0.0
2017-Oct-18 08:28N 43°22' W 003°04'0 0.0
2017-Oct-18 07:58N 43°22' W 003°04'0 0.0
2017-Oct-18 07:28N 43°22' W 003°04'0 0.0
2017-Oct-18 06:58N 43°22' W 003°04'0 0.0
2017-Oct-18 06:30N 43°22' W 003°04'0 0.0
2017-Oct-18 06:00N 43°22' W 003°04'0 0.0
2017-Oct-18 05:30N 43°22' W 003°04'0 0.0
2017-Oct-18 05:00N 43°22' W 003°04'0 0.0
2017-Oct-18 04:30N 43°22' W 003°04'0 0.0
2017-Oct-18 03:58N 43°22' W 003°04'0 0.0
2017-Oct-18 03:28N 43°22' W 003°04'0 0.0
2017-Oct-18 03:00N 43°22' W 003°04'0 0.0
2017-Oct-18 02:27N 43°22' W 003°04'0 0.0
2017-Oct-18 01:58N 43°22' W 003°04'0 0.0
2017-Oct-18 01:28N 43°22' W 003°04'0 0.0
2017-Oct-18 01:00N 43°22' W 003°04'0 0.0
2017-Oct-18 00:30N 43°22' W 003°04'0 0.0
2017-Oct-17 23:58N 43°22' W 003°04'0 0.0
2017-Oct-17 23:28N 43°22' W 003°04'0 0.0
2017-Oct-17 22:53N 43°22' W 003°04'0 0.0
2017-Oct-17 22:29N 43°22' W 003°04'0 0.0
2017-Oct-17 21:58N 43°22' W 003°04'0 0.0
2017-Oct-17 21:28N 43°22' W 003°04'0 0.0
2017-Oct-17 20:58N 43°22' W 003°04'0 0.0
2017-Oct-17 20:28N 43°22' W 003°04'0 0.0
2017-Oct-17 19:56N 43°22' W 003°04'0 0.0
2017-Oct-17 19:29N 43°22' W 003°04'0 0.0
2017-Oct-17 19:01N 43°22' W 003°04'1 1.3
2017-Oct-17 18:31N 43°22' W 003°04'3 5.8
2017-Oct-17 18:01N 43°25' W 003°06'1 2.4
2017-Oct-17 17:31N 43°25' W 003°07'611.0
2017-Oct-17 17:01N 43°28' W 003°13'611.1
2017-Oct-17 16:30N 43°32' W 003°19'510.5
2017-Oct-17 16:00N 43°33' W 003°26'510.6
2017-Oct-17 15:31N 43°34' W 003°33'  
2017-Oct-13 11:59N 43°27' W 003°49'5 5.8
2017-Oct-13 11:10N 43°31' W 003°46'1 8.8
2017-Oct-13 11:00N 43°32' W 003°46'5 9.0
2017-Oct-13 10:30N 43°36' W 003°48'8 9.0
2017-Oct-13 09:35N 43°44' W 003°52'14 9.1
2017-Oct-13 08:04N 43°58' W 003°57'1 9.2
2017-Oct-13 07:59N 43°58' W 003°58'8 9.2
2017-Oct-13 07:09N 44°05' W 004°01'4 9.1
2017-Oct-13 06:43N 44°09' W 004°03'2 9.1
2017-Oct-13 06:31N 44°11' W 004°04'5 9.0
2017-Oct-13 06:00N 44°15' W 004°06'5 9.3
2017-Oct-13 05:30N 44°20' W 004°08'5 9.3
2017-Oct-13 05:00N 44°24' W 004°10'5 9.4
2017-Oct-13 04:28N 44°29' W 004°12'4 9.3
2017-Oct-13 03:59N 44°33' W 004°14'5 9.5
2017-Oct-13 03:28N 44°38' W 004°16'8 9.4
2017-Oct-13 02:37N 44°45' W 004°19'1 9.2
2017-Oct-13 02:30N 44°46' W 004°20'  

Dump ship's entire track history